Time;durP1;ratioP1;P1;durP2;ratioP2;P2;SDS_P1;SDS_P2;PMS_P1;PMS_P2;Temp;Humidity;BMP_temperature;BMP_pressure;BME280_temperature;BME280_humidity;BME280_pressure;Samples;Min_cycle;Max_cycle;Signal;HPM_P1;HPM_P2
2022/12/15 00:40:31;;;;;;;0.13;0.13;;;;;;;-1.55;66.56;100771.22;5089430;28;20127;-80
2022/12/15 00:42:57;;;;;;;5.88;1.23;;;;;;;-1.58;67.04;100777.22;5093109;28;20025;-80
2022/12/15 00:46:53;;;;;;;0.20;0.20;;;;;;;-1.60;67.29;100772.81;5097730;28;20043;-80
2022/12/15 00:48:09;;;;;;;0.10;0.10;;;;;;;-1.60;67.41;100775.41;5098202;28;20111;-80
2022/12/15 00:50:51;;;;;;;0.25;0.25;;;;;;;-1.59;67.85;100774.59;5100271;28;20035;-79
2022/12/15 01:21:01;;;;;;;0.30;0.30;;;;;;;-0.84;69.47;100806.94;5076263;28;20035;-79
2022/12/15 01:23:27;;;;;;;0.20;0.20;;;;;;;-0.75;69.01;100814.09;5076440;28;20036;-79
2022/12/15 01:25:54;;;;;;;0.20;0.20;;;;;;;-0.70;68.83;100813.38;5074228;28;20028;-80
2022/12/15 01:28:21;;;;;;;0.80;0.80;;;;;;;-0.69;69.52;100815.13;5073453;28;20051;-80
2022/12/15 01:30:48;;;;;;;0.20;0.20;;;;;;;-0.67;69.43;100809.97;5071011;28;20378;-80
2022/12/15 01:33:17;;;;;;;0.90;0.85;;;;;;;-0.68;68.42;100816.88;5076427;28;20044;-80
2022/12/15 01:35:43;;;;;;;0.20;0.20;;;;;;;-0.70;67.80;100815.09;5071522;28;20038;-80
2022/12/15 01:38:10;;;;;;;0.20;0.20;;;;;;;-0.72;67.84;100815.06;5063962;28;20032;-80
2022/12/15 01:40:46;;;;;;;0.20;0.20;;;;;;;-0.72;68.86;100819.41;5066895;28;20034;-80
2022/12/15 01:43:17;;;;;;;0.10;0.10;;;;;;;-0.72;68.32;100815.06;5081005;28;20020;-80
2022/12/15 01:48:45;;;;;;;0.20;0.20;;;;;;;-0.74;68.97;100811.53;5130650;27;20383;-79
2022/12/15 01:54:12;;;;;;;0.17;0.17;;;;;;;-0.73;69.62;100821.09;5053407;28;20395;-79
2022/12/15 01:56:44;;;;;;;0.30;0.30;;;;;;;-0.83;69.88;100817.38;5044714;28;20029;-80
2022/12/15 01:59:15;;;;;;;0.20;0.20;;;;;;;-0.78;68.72;100819.22;5048280;28;20082;-79
2022/12/15 02:01:41;;;;;;;2.33;2.17;;;;;;;-0.81;69.51;100814.81;5060528;28;20061;-81
2022/12/15 02:04:08;;;;;;;0.20;0.20;;;;;;;-0.82;69.33;100824.34;5059125;28;20278;-80
2022/12/15 02:06:35;;;;;;;0.10;0.10;;;;;;;-0.85;69.19;100823.38;5046599;28;20485;-80
2022/12/15 02:09:02;;;;;;;0.20;0.20;;;;;;;-0.85;69.39;100837.28;5043353;28;20047;-78
2022/12/15 02:12:08;;;;;;;0.20;0.20;;;;;;;-0.77;68.77;100834.88;5044945;28;20527;-80
2022/12/15 02:17:46;;;;;;;0.68;0.68;;;;;;;-0.83;69.06;100838.19;5055375;28;20414;-79
2022/12/15 02:25:59;;;;;;;0.20;0.20;;;;;;;-0.90;69.51;100830.19;5127793;27;20417;-77
2022/12/15 02:31:53;;;;;;;0.10;0.10;;;;;;;-1.01;68.50;100830.78;5079478;27;20392;-79
2022/12/15 02:34:16;;;;;;;0.10;0.10;;;;;;;-1.02;68.72;100821.22;5063074;28;20037;-79
2022/12/15 02:36:48;;;;;;;0.20;0.20;;;;;;;-1.02;68.86;100831.63;5054237;28;20036;-80
2022/12/15 02:39:17;;;;;;;0.20;0.20;;;;;;;-1.07;69.33;100827.13;5044112;28;20022;-79
2022/12/15 02:41:46;;;;;;;0.20;0.20;;;;;;;-1.08;69.18;100831.44;5044743;28;20029;-80
2022/12/15 02:44:23;;;;;;;1.05;1.05;;;;;;;-1.10;69.42;100832.25;5046754;28;20403;-80
2022/12/15 02:49:55;;;;;;;0.52;0.52;;;;;;;-1.12;69.40;100829.63;5113935;27;20919;-80
2022/12/15 02:58:16;;;;;;;0.20;0.20;;;;;;;-1.21;70.00;100840.66;5069213;28;20400;-80
2022/12/15 03:00:51;;;;;;;0.20;0.20;;;;;;;-1.21;69.44;100835.44;5069372;28;20067;-79
2022/12/15 03:03:20;;;;;;;0.20;0.20;;;;;;;-1.22;69.47;100845.78;5056065;28;20031;-79
2022/12/15 03:05:53;;;;;;;0.20;0.20;;;;;;;-1.23;68.98;100842.31;5061719;28;20508;-79
2022/12/15 03:08:20;;;;;;;0.13;0.13;;;;;;;-1.25;69.38;100845.69;5055428;28;20057;-79
2022/12/15 03:10:51;;;;;;;0.20;0.20;;;;;;;-1.25;69.43;100843.97;5055341;28;20028;-80
2022/12/15 03:13:17;;;;;;;0.17;0.17;;;;;;;-1.23;69.44;100849.25;5051532;28;20025;-79
2022/12/15 03:15:44;;;;;;;0.13;0.13;;;;;;;-1.23;68.50;100836.25;5052587;28;20068;-80
2022/12/15 03:18:10;;;;;;;0.40;0.40;;;;;;;-1.26;69.44;100839.59;5062680;28;20191;-79
2022/12/15 03:20:38;;;;;;;0.20;0.20;;;;;;;-1.21;69.45;100840.66;5063514;28;20029;-80
2022/12/15 03:23:05;;;;;;;0.20;0.20;;;;;;;-1.21;69.58;100852.75;5065070;28;20035;-80
2022/12/15 03:25:31;;;;;;;1.95;1.70;;;;;;;-1.21;69.15;100856.25;5052545;28;20021;-79
2022/12/15 03:27:59;;;;;;;0.47;0.47;;;;;;;-1.19;69.70;100856.28;5065759;28;20036;-79
2022/12/15 03:30:25;;;;;;;0.20;0.20;;;;;;;-1.19;69.53;100861.47;5070008;28;20036;-79
2022/12/15 03:32:51;;;;;;;0.20;0.20;;;;;;;-1.20;69.76;100864.91;5054896;28;20037;-80
2022/12/15 03:35:18;;;;;;;0.20;0.20;;;;;;;-1.18;69.64;100865.84;5051190;28;20033;-81
2022/12/15 03:37:44;;;;;;;0.20;0.20;;;;;;;-1.20;69.99;100857.97;5058122;28;20032;-81
2022/12/15 03:40:12;;;;;;;0.20;0.20;;;;;;;-1.20;69.83;100864.91;5067857;28;20068;-79
2022/12/15 03:42:54;;;;;;;0.20;0.20;;;;;;;-1.21;69.20;100863.13;5077134;28;21109;-78
2022/12/15 03:45:24;;;;;;;0.20;0.20;;;;;;;-1.20;69.55;100864.91;5068753;28;20032;-80
2022/12/15 03:47:51;;;;;;;0.20;0.20;;;;;;;-1.22;68.71;100864.88;5054564;28;20040;-80
2022/12/15 03:50:22;;;;;;;0.65;0.65;;;;;;;-1.21;69.10;100861.44;5064386;28;20035;-80
2022/12/15 03:52:52;;;;;;;0.20;0.20;;;;;;;-1.18;68.87;100865.84;5056186;28;20056;-80
2022/12/15 03:55:19;;;;;;;0.20;0.20;;;;;;;-1.19;68.78;100856.28;5067436;28;20347;-80
2022/12/15 03:57:45;;;;;;;0.20;0.20;;;;;;;-1.22;69.54;100863.97;5059919;28;20051;-80
2022/12/15 04:00:14;;;;;;;1.60;1.50;;;;;;;-1.27;69.33;100865.56;5061430;28;20479;-80
2022/12/15 04:02:41;;;;;;;0.20;0.20;;;;;;;-1.31;69.09;100864.59;5057899;28;20045;-80
2022/12/15 04:05:12;;;;;;;0.20;0.20;;;;;;;-1.33;69.47;100869.75;5062508;28;20030;-80
2022/12/15 04:07:38;;;;;;;0.13;0.13;;;;;;;-1.34;69.43;100865.38;5062059;28;20028;-80
2022/12/15 04:10:05;;;;;;;0.20;0.20;;;;;;;-1.34;69.25;100865.38;5058129;28;20028;-80
2022/12/15 04:12:31;;;;;;;0.20;0.20;;;;;;;-1.32;69.59;100868.06;5055037;28;20026;-78
2022/12/15 04:14:57;;;;;;;0.15;0.15;;;;;;;-1.33;69.30;100861.97;5048456;28;20425;-79
2022/12/15 04:17:23;;;;;;;0.20;0.20;;;;;;;-1.37;70.20;100865.31;5046486;28;20477;-79
2022/12/15 04:20:20;;;;;;;0.20;0.20;;;;;;;-1.37;69.56;100870.50;5049863;28;20090;-80
2022/12/15 05:32:14;;;;;;;0.20;0.20;;;;;;;-1.64;70.09;100889.63;5059580;28;20215;-82
2022/12/15 05:34:40;;;;;;;0.10;0.10;;;;;;;-1.63;70.32;100886.19;5048462;28;20026;-81
2022/12/15 05:37:06;;;;;;;0.20;0.20;;;;;;;-1.64;69.89;100883.56;5036281;28;20409;-79
2022/12/15 05:39:33;;;;;;;0.20;0.20;;;;;;;-1.63;70.81;100886.19;5034810;28;20037;-80
2022/12/15 05:41:59;;;;;;;0.10;0.10;;;;;;;-1.62;70.71;100879.28;5035766;28;20504;-80
2022/12/15 05:44:26;;;;;;;0.38;0.38;;;;;;;-1.59;71.04;100886.31;5036317;28;20061;-81
2022/12/15 05:46:52;;;;;;;0.20;0.20;;;;;;;-1.57;70.80;100892.41;5038252;28;20025;-80
2022/12/15 05:49:19;;;;;;;0.20;0.20;;;;;;;-1.53;70.22;100894.28;5049331;28;20034;-80
2022/12/15 05:51:46;;;;;;;0.20;0.20;;;;;;;-1.56;70.74;100899.38;5040613;28;20063;-81
2022/12/15 05:54:15;;;;;;;0.20;0.20;;;;;;;-1.59;70.41;100904.50;5041711;28;20104;-81
2022/12/15 05:56:41;;;;;;;0.28;0.28;;;;;;;-1.64;70.93;100905.22;5032245;28;20517;-80
2022/12/15 05:59:08;;;;;;;3.72;3.50;;;;;;;-1.63;70.73;100904.38;5039609;28;20029;-80
2022/12/15 06:01:38;;;;;;;0.10;0.10;;;;;;;-1.64;71.01;100910.41;5032720;28;20417;-81
2022/12/15 06:04:04;;;;;;;0.10;0.10;;;;;;;-1.62;71.00;100910.44;5033621;28;20030;-81
2022/12/15 06:06:30;;;;;;;0.70;0.70;;;;;;;-1.62;71.46;100918.25;5034429;28;20044;-81
2022/12/15 06:08:57;;;;;;;0.30;0.30;;;;;;;-1.63;71.58;100913.91;5035079;28;20055;-81
2022/12/15 06:11:23;;;;;;;0.20;0.20;;;;;;;-1.64;71.34;100909.53;5036131;28;20040;-81
2022/12/15 06:13:49;;;;;;;0.20;0.20;;;;;;;-1.66;70.75;100916.41;5035054;28;20527;-81
2022/12/15 06:16:17;;;;;;;0.10;0.10;;;;;;;-1.68;70.49;100929.34;5052178;28;20076;-80
2022/12/15 06:18:49;;;;;;;0.15;0.15;;;;;;;-1.74;70.55;100925.69;5056572;28;20021;-81
2022/12/15 06:21:18;;;;;;;0.20;0.20;;;;;;;-1.71;71.04;100928.38;5036355;28;20033;-81
2022/12/15 06:23:44;;;;;;;0.20;0.20;;;;;;;-1.67;71.03;100917.22;5040898;28;20538;-81
2022/12/15 06:26:16;;;;;;;0.10;0.10;;;;;;;-1.67;70.68;100931.13;5046488;28;20037;-81
2022/12/15 06:28:42;;;;;;;0.20;0.20;;;;;;;-1.67;70.79;100928.53;5048385;28;20121;-80
2022/12/15 06:31:10;;;;;;;0.30;0.30;;;;;;;-1.65;70.99;100926.81;5048284;28;20037;-80
2022/12/15 06:33:37;;;;;;;0.20;0.20;;;;;;;-1.62;70.84;100926.03;5040111;28;20025;-80
2022/12/15 06:36:06;;;;;;;0.20;0.20;;;;;;;-1.61;71.44;100921.75;5040945;28;20196;-80
2022/12/15 06:38:32;;;;;;;0.20;0.20;;;;;;;-1.57;71.44;100921.91;5037118;28;20408;-78
2022/12/15 06:41:00;;;;;;;0.20;0.20;;;;;;;-1.51;70.88;100929.88;5053841;28;20452;-80
2022/12/15 06:43:29;;;;;;;0.10;0.10;;;;;;;-1.45;71.09;100926.56;5043150;28;20030;-78
2022/12/15 06:45:55;;;;;;;0.20;0.20;;;;;;;-1.44;70.76;100923.13;5040397;28;20041;-78
2022/12/15 06:48:23;;;;;;;0.20;0.20;;;;;;;-1.45;71.43;100926.56;5037684;28;20029;-79
2022/12/15 06:50:50;;;;;;;0.20;0.20;;;;;;;-1.43;71.18;100931.81;5036467;28;20037;-78
2022/12/15 06:53:18;;;;;;;0.10;0.10;;;;;;;-1.42;70.61;100926.69;5040301;28;20370;-80
2022/12/15 06:55:45;;;;;;;0.13;0.13;;;;;;;-1.41;70.81;100930.16;5043281;28;20049;-79
2022/12/15 06:58:12;;;;;;;0.20;0.20;;;;;;;-1.40;71.12;100930.19;5046210;28;20047;-78
2022/12/15 07:00:39;;;;;;;0.20;0.20;;;;;;;-1.37;70.56;100932.00;5038389;28;20056;-78
2022/12/15 07:03:10;;;;;;;0.30;0.30;;;;;;;-1.39;71.04;100931.94;5041822;28;20029;-78
2022/12/15 07:05:36;;;;;;;0.20;0.20;;;;;;;-1.42;70.69;100937.06;5057715;28;20033;-78
2022/12/15 07:08:02;;;;;;;0.20;0.20;;;;;;;-1.37;70.85;100932.91;5058816;28;20040;-78
2022/12/15 07:10:28;;;;;;;0.88;0.88;;;;;;;-1.38;70.81;100946.72;5041858;28;20049;-77
2022/12/15 07:12:57;;;;;;;0.20;0.20;;;;;;;-1.35;70.58;100939.00;5048139;28;20040;-77
2022/12/15 07:15:23;;;;;;;0.25;0.25;;;;;;;-1.34;71.06;100937.31;5039862;28;20044;-77
2022/12/15 07:17:50;;;;;;;0.85;0.77;;;;;;;-1.33;71.32;100945.13;5049210;28;20071;-79
2022/12/15 07:20:16;;;;;;;0.10;0.10;;;;;;;-1.28;70.60;100936.59;5050127;28;20018;-79
2022/12/15 07:22:42;;;;;;;0.20;0.20;;;;;;;-1.26;71.21;100934.94;5054319;28;20033;-80
2022/12/15 07:25:08;;;;;;;0.15;0.15;;;;;;;-1.23;70.80;100940.22;5045936;28;20041;-80
2022/12/15 07:27:34;;;;;;;0.10;0.10;;;;;;;-1.23;70.84;100941.09;5048580;28;20037;-78
2022/12/15 07:30:00;;;;;;;0.20;0.20;;;;;;;-1.23;71.16;100941.09;5050079;28;20038;-79
2022/12/15 07:32:26;;;;;;;0.10;0.10;;;;;;;-1.24;70.78;100939.34;5053259;28;20104;-80
2022/12/15 07:34:53;;;;;;;0.20;0.20;;;;;;;-1.24;71.10;100934.13;5060216;28;20096;-79
2022/12/15 07:37:19;;;;;;;0.20;0.20;;;;;;;-1.28;70.81;100945.28;5058622;28;20037;-80
2022/12/15 07:39:45;;;;;;;0.20;0.20;;;;;;;-1.31;71.09;100953.88;5048710;28;20037;-80
2022/12/15 07:42:11;;;;;;;0.20;0.20;;;;;;;-1.35;70.94;100956.31;5053832;28;20044;-81
2022/12/15 07:44:37;;;;;;;0.40;0.40;;;;;;;-1.39;71.02;100965.75;5046276;28;20053;-80
2022/12/15 07:47:03;;;;;;;0.10;0.10;;;;;;;-1.41;70.82;100966.53;5037856;28;20188;-81
2022/12/15 07:49:29;;;;;;;0.20;0.20;;;;;;;-1.41;70.82;100962.19;5041255;28;20029;-80
2022/12/15 07:51:57;;;;;;;0.20;0.20;;;;;;;-1.43;70.92;100963.00;5043384;28;20038;-80
2022/12/15 07:54:25;;;;;;;0.20;0.20;;;;;;;-1.47;70.81;100967.22;5055113;28;20016;-80
2022/12/15 07:56:52;;;;;;;0.20;0.20;;;;;;;-1.50;71.18;100961.94;5057754;28;20037;-80
2022/12/15 07:59:18;;;;;;;0.20;0.20;;;;;;;-1.52;70.32;100969.69;5058536;28;20017;-80
2022/12/15 08:01:44;;;;;;;0.20;0.20;;;;;;;-1.53;70.44;100965.31;5056968;28;20052;-80
2022/12/15 08:04:11;;;;;;;0.30;0.30;;;;;;;-1.52;71.27;100969.69;5056393;28;20051;-82
2022/12/15 08:06:37;;;;;;;0.20;0.20;;;;;;;-1.53;70.42;100970.53;5051347;28;20087;-80
2022/12/15 08:09:03;;;;;;;0.40;0.40;;;;;;;-1.53;70.68;100973.13;5048731;28;20248;-80
2022/12/15 08:11:33;;;;;;;0.20;0.20;;;;;;;-1.54;71.14;100970.47;5044121;28;20523;-80
2022/12/15 08:13:59;;;;;;;0.20;0.20;;;;;;;-1.53;70.85;100969.66;5041588;28;20030;-80
2022/12/15 08:16:25;;;;;;;0.20;0.20;;;;;;;-1.55;71.30;100973.91;5046701;28;20055;-80
2022/12/15 08:18:52;;;;;;;0.17;0.17;;;;;;;-1.52;70.55;100966.19;5049733;28;20041;-81
2022/12/15 08:21:18;;;;;;;0.20;0.20;;;;;;;-1.53;70.78;100980.91;5048792;28;20037;-79
2022/12/15 08:23:44;;;;;;;0.20;0.20;;;;;;;-1.49;70.82;100976.69;5046646;28;20045;-80
2022/12/15 08:26:14;;;;;;;0.20;0.20;;;;;;;-1.49;71.09;100977.56;5042710;28;20025;-80
2022/12/15 08:28:41;;;;;;;0.20;0.20;;;;;;;-1.42;70.98;100977.75;5040307;28;20026;-80
2022/12/15 08:31:14;;;;;;;0.20;0.20;;;;;;;-1.35;70.78;100985.78;5035883;28;20051;-79
2022/12/15 08:33:40;;;;;;;0.28;0.28;;;;;;;-1.31;71.00;100990.28;5034188;28;20108;-80
2022/12/15 08:36:09;;;;;;;0.10;0.10;;;;;;;-1.25;71.14;100993.88;5040832;28;20036;-80
2022/12/15 08:38:37;;;;;;;0.10;0.10;;;;;;;-1.20;71.33;100994.91;5044868;28;20083;-79
2022/12/15 08:41:14;;;;;;;0.20;0.20;;;;;;;-1.09;71.27;100993.50;5040485;28;20025;-80
2022/12/15 08:43:41;;;;;;;5.68;2.50;;;;;;;-1.11;71.58;100992.56;5036023;28;20038;-80
2022/12/15 08:46:07;;;;;;;0.20;0.20;;;;;;;-1.08;70.62;100973.59;5039566;28;20025;-80
2022/12/15 08:48:34;;;;;;;0.40;0.40;;;;;;;-1.05;71.29;100982.34;5040353;28;20025;-79
2022/12/15 08:51:01;;;;;;;0.55;0.55;;;;;;;-1.03;70.81;100992.81;5051476;28;20107;-79
2022/12/15 08:53:27;;;;;;;0.20;0.20;;;;;;;-0.98;71.29;100986.03;5052007;28;20033;-79
2022/12/15 08:55:53;;;;;;;0.20;0.20;;;;;;;-0.91;71.98;100994.88;5042783;28;20030;-79
2022/12/15 08:58:20;;;;;;;0.10;0.10;;;;;;;-0.87;71.91;100997.63;5039728;28;20037;-79
2022/12/15 09:00:46;;;;;;;0.20;0.20;;;;;;;-0.78;72.13;101002.22;5039229;28;20021;-80
2022/12/15 09:03:12;;;;;;;0.20;0.20;;;;;;;-0.72;71.87;101006.72;5038749;28;20025;-80
2022/12/15 09:05:38;;;;;;;0.32;0.32;;;;;;;-0.67;71.73;101006.00;5038852;28;20061;-80
2022/12/15 09:08:05;;;;;;;1.85;1.75;;;;;;;-0.60;72.03;101006.19;5046578;28;20053;-79
2022/12/15 09:10:31;;;;;;;0.38;0.38;;;;;;;-0.54;71.96;101006.34;5049444;28;20102;-79
2022/12/15 09:12:57;;;;;;;0.20;0.20;;;;;;;-0.46;71.97;101006.56;5043824;28;20146;-80
2022/12/15 09:15:23;;;;;;;0.28;0.28;;;;;;;-0.42;72.36;101006.69;5046150;28;20041;-79
2022/12/15 09:17:49;;;;;;;0.20;0.20;;;;;;;-0.34;71.49;101002.59;5040952;28;20500;-80
2022/12/15 09:20:16;;;;;;;20.08;2.65;;;;;;;-0.26;72.02;100999.28;5045006;28;20040;-80
2022/12/15 09:22:42;;;;;;;0.20;0.20;;;;;;;-0.19;72.02;101003.81;5055464;28;20091;-80
2022/12/15 09:25:08;;;;;;;0.77;0.77;;;;;;;-0.13;72.07;101005.72;5050681;28;20045;-79
2022/12/15 09:27:35;;;;;;;1.25;0.90;;;;;;;-0.07;72.00;101014.56;5044186;28;20041;-80
2022/12/15 09:30:01;;;;;;;1.38;1.38;;;;;;;-0.03;72.17;101010.31;5038918;28;20021;-80
2022/12/15 09:32:27;;;;;;;1.13;1.13;;;;;;;0.02;72.22;101013.06;5043091;28;20029;-79
2022/12/15 09:34:54;;;;;;;0.20;0.20;;;;;;;0.06;71.82;101015.75;5034927;28;21130;-78
2022/12/15 09:37:20;;;;;;;0.20;0.20;;;;;;;0.13;71.80;101016.81;5033917;28;20034;-80
2022/12/15 09:39:46;;;;;;;2.20;1.75;;;;;;;0.19;72.59;101011.75;5030764;28;20034;-80
2022/12/15 09:42:23;;;;;;;1.10;1.10;;;;;;;0.32;72.03;101019.06;5034824;28;20034;-80
2022/12/15 09:44:57;;;;;;;0.30;0.30;;;;;;;0.34;72.60;101015.56;5034691;28;20036;-80
2022/12/15 09:47:38;;;;;;;0.32;0.32;;;;;;;0.45;72.24;101019.34;5042181;28;20041;-81
2022/12/15 09:50:10;;;;;;;1.35;1.27;;;;;;;0.52;72.80;101028.19;5047089;28;20367;-80
2022/12/15 09:52:46;;;;;;;1.08;1.02;;;;;;;0.62;72.74;101031.06;5055894;28;20035;-80
2022/12/15 09:55:22;;;;;;;0.40;0.40;;;;;;;0.75;72.69;101026.13;5054726;28;20075;-79
2022/12/15 09:58:28;;;;;;;1.48;1.42;;;;;;;0.86;72.24;101024.66;5055401;28;20024;-79
2022/12/15 10:01:11;;;;;;;0.10;0.10;;;;;;;0.90;73.06;101029.09;5052168;28;20026;-79
2022/12/15 10:06:18;;;;;;;1.58;1.48;;;;;;;1.09;72.85;101039.94;5083232;28;20410;-79
2022/12/15 10:08:53;;;;;;;0.32;0.32;;;;;;;1.13;73.63;101041.75;5077147;28;20029;-80
2022/12/15 10:11:39;;;;;;;0.20;0.20;;;;;;;1.23;73.38;101048.06;5079552;28;20055;-80
2022/12/15 10:17:07;;;;;;;0.28;0.28;;;;;;;1.50;73.03;101042.53;5059228;27;2088841;-80
2022/12/15 10:22:13;;;;;;;0.20;0.20;;;;;;;1.65;72.76;101031.50;5084884;27;20405;-80
2022/12/15 10:24:40;;;;;;;0.20;0.20;;;;;;;1.75;72.32;101035.19;5093894;28;20028;-81
2022/12/15 10:29:50;;;;;;;1.80;1.65;;;;;;;1.94;72.66;101039.91;5069183;28;20406;-79
2022/12/15 10:32:23;;;;;;;2.90;2.80;;;;;;;2.05;72.43;101049.69;5073604;28;20522;-80
2022/12/15 10:34:49;;;;;;;;;;;;;;;2.28;72.29;101049.19;5066837;28;20059;-80
2022/12/15 10:37:18;;;;;;;0.20;0.20;;;;;;;2.25;71.64;101040.44;5077248;28;19913;-78
2022/12/15 10:39:47;;;;;;;0.75;0.68;;;;;;;2.33;72.02;101042.31;5071196;28;20040;-80
2022/12/15 10:42:23;;;;;;;0.20;0.20;;;;;;;2.41;72.10;101041.59;5058034;28;20074;-79
2022/12/15 10:44:53;;;;;;;0.55;0.55;;;;;;;2.40;72.04;101038.94;5055409;28;20036;-80
2022/12/15 10:47:28;;;;;;;0.30;0.30;;;;;;;2.41;71.54;101038.97;5066419;28;20057;-80
2022/12/15 10:50:14;;;;;;;0.20;0.20;;;;;;;2.38;71.64;101035.41;5064869;28;20067;-79
2022/12/15 10:52:40;;;;;;;0.10;0.10;;;;;;;2.42;71.93;101027.66;5076720;28;20028;-79
2022/12/15 10:55:42;;;;;;;0.10;0.10;;;;;;;2.56;71.86;101040.97;5083396;28;20032;-80
2022/12/15 10:58:19;;;;;;;0.55;0.55;;;;;;;2.67;71.84;101032.41;5085471;28;20135;-80
2022/12/15 11:00:46;;;;;;;0.30;0.30;;;;;;;2.75;71.56;101031.69;5071437;28;20020;-80
2022/12/15 11:03:23;;;;;;;0.10;0.10;;;;;;;2.91;71.58;101042.38;5069834;28;20021;-79
2022/12/15 11:05:53;;;;;;;0.20;0.20;;;;;;;2.99;71.63;101032.91;5073889;28;20056;-80
2022/12/15 11:08:21;;;;;;;2.38;1.60;;;;;;;3.10;71.74;101027.78;5062733;28;20041;-79
2022/12/15 11:14:05;;;;;;;0.20;0.20;;;;;;;3.46;71.73;101026.50;5058724;28;20052;-79
2022/12/15 11:16:32;;;;;;;0.52;0.52;;;;;;;3.60;70.99;101033.66;5068532;28;20033;-80
2022/12/15 11:19:10;;;;;;;0.47;0.45;;;;;;;3.75;70.83;101039.09;5070724;28;20236;-80
2022/12/15 11:21:44;;;;;;;0.40;0.40;;;;;;;3.90;70.48;101033.13;5060247;28;20033;-80
2022/12/15 11:24:25;;;;;;;0.30;0.30;;;;;;;4.15;70.70;101038.59;5061789;28;20052;-79
2022/12/15 11:27:00;;;;;;;0.15;0.15;;;;;;;4.25;70.61;101029.06;5065550;28;20033;-80
2022/12/15 11:29:43;;;;;;;0.52;0.52;;;;;;;4.34;70.03;101023.94;5058949;28;20017;-80
2022/12/15 11:32:12;;;;;;;0.20;0.20;;;;;;;4.45;69.55;101019.66;5057833;28;20645;-80
2022/12/15 11:34:43;;;;;;;0.10;0.10;;;;;;;4.50;69.46;101025.81;5060756;28;20397;-81
2022/12/15 11:37:33;;;;;;;1.25;1.13;;;;;;;4.53;69.12;101015.31;5061006;28;20029;-80
2022/12/15 11:48:25;;;;;;;0.20;0.20;;;;;;;4.19;69.11;101025.53;5097252;27;20376;-81
2022/12/15 11:54:01;;;;;;;0.32;0.32;;;;;;;4.32;68.97;101020.41;5097736;27;20440;-81
2022/12/15 11:56:49;;;;;;;0.20;0.20;;;;;;;4.38;69.08;101018.69;5082565;28;20499;-81
2022/12/15 12:11:11;;;;;;;0.10;0.10;;;;;;;4.51;68.84;101017.06;5101191;27;20473;-83
2022/12/15 12:14:03;;;;;;;2.85;1.58;;;;;;;4.40;68.67;101015.22;5092159;28;20453;-82
2022/12/15 12:16:56;;;;;;;0.20;0.20;;;;;;;4.30;68.27;101011.63;5102691;28;20486;-85
2022/12/15 12:19:47;;;;;;;0.20;0.20;;;;;;;4.24;68.90;101008.94;5106135;28;20031;-84
2022/12/15 12:25:04;;;;;;;0.10;0.10;;;;;;;4.38;69.17;101005.59;5073339;27;20407;-80
2022/12/15 12:27:55;;;;;;;0.32;0.32;;;;;;;4.51;69.64;100996.06;5071953;28;20028;-80
2022/12/15 12:30:27;;;;;;;0.15;0.15;;;;;;;4.59;69.15;100997.88;5071181;28;20519;-80
2022/12/15 12:35:37;;;;;;;0.20;0.20;;;;;;;4.62;69.29;100982.16;5085809;27;1859663;-81
2022/12/15 12:38:08;;;;;;;0.65;0.65;;;;;;;4.64;69.45;100976.03;5133077;28;20066;-81
2022/12/15 12:43:31;;;;;;;0.22;0.22;;;;;;;4.82;69.38;100975.28;5106344;27;20386;-81
2022/12/15 12:48:48;;;;;;;0.40;0.40;;;;;;;4.98;69.22;100977.97;5116165;27;1171695;-81
2022/12/15 12:51:23;;;;;;;0.22;0.22;;;;;;;5.08;69.01;100979.78;5129442;28;20387;-81
2022/12/15 12:53:51;;;;;;;0.28;0.28;;;;;;;5.11;69.03;100974.56;5110337;28;20546;-81
2022/12/15 12:56:40;;;;;;;0.10;0.10;;;;;;;5.24;68.72;100972.00;5113973;28;20023;-81
2022/12/15 13:07:39;;;;;;;0.30;0.30;;;;;;;5.40;67.98;100959.78;5051519;28;20418;-85
2022/12/15 13:12:50;;;;;;;0.20;0.20;;;;;;;5.49;68.13;100955.41;5062485;28;20413;-82
2022/12/15 13:18:26;;;;;;;0.10;0.10;;;;;;;5.61;68.17;100948.47;5089912;27;20409;-82
2022/12/15 13:20:54;;;;;;;0.00;0.00;;;;;;;5.56;67.96;100955.44;5071504;28;20029;-82
2022/12/15 13:44:36;;;;;;;0.20;0.20;;;;;;;5.81;67.35;100922.19;5107747;27;20387;-82
2022/12/15 13:49:58;;;;;;;0.28;0.28;;;;;;;5.89;67.46;100923.06;5113836;27;1384600;-81
2022/12/15 13:55:04;;;;;;;0.60;0.50;;;;;;;5.78;68.47;100923.06;5097256;27;1185667;-83
2022/12/15 13:57:39;;;;;;;0.40;0.40;;;;;;;5.88;67.15;100923.97;5116575;28;20027;-82
2022/12/15 14:00:17;;;;;;;0.10;0.10;;;;;;;5.93;67.36;100919.56;5106463;28;20062;-83
2022/12/15 14:02:44;;;;;;;0.28;0.28;;;;;;;5.94;67.85;100921.34;5109306;28;20058;-83
2022/12/15 14:05:21;;;;;;;0.47;0.47;;;;;;;5.98;67.71;100922.19;5100500;28;20024;-82
2022/12/15 14:07:55;;;;;;;0.22;0.22;;;;;;;5.96;67.65;100923.97;5102572;28;20021;-83
2022/12/15 14:10:27;;;;;;;0.45;0.45;;;;;;;5.96;67.55;100916.94;5105874;28;20111;-83
2022/12/15 14:12:57;;;;;;;0.30;0.30;;;;;;;5.95;67.24;100930.09;5109451;28;20089;-83
2022/12/15 14:15:28;;;;;;;0.47;0.47;;;;;;;5.92;67.01;100924.81;5111782;28;20392;-83
2022/12/15 14:17:56;;;;;;;0.30;0.30;;;;;;;5.88;66.98;100925.69;5104964;28;20028;-83
2022/12/15 14:20:26;;;;;;;0.47;0.47;;;;;;;5.88;66.56;100928.31;5099540;28;20028;-83
2022/12/15 14:22:53;;;;;;;0.10;0.10;;;;;;;5.86;66.88;100917.81;5111925;28;20024;-83
2022/12/15 14:25:25;;;;;;;0.20;0.20;;;;;;;5.84;66.34;100914.28;5112074;28;20040;-83
2022/12/15 14:27:51;;;;;;;0.40;0.40;;;;;;;5.79;66.13;100919.53;5110590;28;20023;-83
2022/12/15 14:30:27;;;;;;;4.82;1.02;;;;;;;5.82;66.51;100913.44;5102093;28;20107;-83
2022/12/15 14:35:42;;;;;;;0.10;0.10;;;;;;;5.77;65.68;100910.78;5096902;27;20374;-80
2022/12/15 14:38:15;;;;;;;0.45;0.45;;;;;;;5.74;66.23;100921.28;5084211;28;20051;-80
2022/12/15 14:40:42;;;;;;;;;;;;;;;5.73;65.80;100922.19;5066850;28;20045;-80
2022/12/15 14:43:17;;;;;;;0.10;0.10;;;;;;;5.59;66.69;100914.25;5074050;28;20443;-80
2022/12/15 14:45:43;;;;;;;0.20;0.20;;;;;;;5.44;66.82;100923.00;5075413;28;20045;-80
2022/12/15 14:48:18;;;;;;;0.10;0.10;;;;;;;5.39;66.44;100914.22;5078951;28;20044;-80
2022/12/15 14:50:47;;;;;;;0.30;0.30;;;;;;;5.29;66.69;100907.19;5070665;28;20078;-79
2022/12/15 14:53:19;;;;;;;0.10;0.10;;;;;;;5.21;66.89;100907.19;5059851;28;20028;-80
2022/12/15 14:55:45;;;;;;;0.65;0.55;;;;;;;5.11;66.82;100906.28;5070525;28;20033;-79
2022/12/15 14:58:31;;;;;;;0.17;0.17;;;;;;;5.06;67.07;100905.38;5079371;28;20060;-80
2022/12/15 15:00:58;;;;;;;1.38;0.88;;;;;;;4.86;66.65;100908.78;5060474;28;20615;-80
2022/12/15 15:03:40;;;;;;;0.40;0.40;;;;;;;4.78;67.26;100907.88;5054752;28;20468;-80
2022/12/15 15:08:51;;;;;;;0.45;0.45;;;;;;;4.52;67.61;100911.25;5100859;27;20424;-80
2022/12/15 15:13:57;;;;;;;0.82;0.82;;;;;;;4.30;67.56;100911.94;5094372;27;20420;-80
2022/12/15 15:16:23;;;;;;;0.20;0.20;;;;;;;4.20;68.11;100911.03;5088839;28;20060;-78
2022/12/15 15:18:52;;;;;;;2.92;0.75;;;;;;;4.11;68.45;100909.22;5090748;28;20036;-78
2022/12/15 15:21:23;;;;;;;0.20;0.20;;;;;;;4.09;68.15;100912.69;5084322;28;20056;-78
2022/12/15 15:26:47;;;;;;;0.28;0.28;;;;;;;3.92;68.48;100909.94;5105281;27;20974;-79
2022/12/15 15:29:40;;;;;;;0.10;0.10;;;;;;;3.86;68.34;100911.66;5089560;28;20085;-80
2022/12/15 15:32:13;;;;;;;;;;;;;;;3.84;68.36;100909.88;5089229;28;20375;-79
2022/12/15 15:34:39;;;;;;;;;;;;;;;3.77;67.81;100908.94;5091403;28;19916;-79
2022/12/15 15:37:19;;;;;;;2.15;2.05;;;;;;;3.62;68.43;100899.19;5090434;28;20055;-79
2022/12/15 15:39:50;;;;;;;3.13;1.25;;;;;;;3.52;68.40;100900.84;5091619;28;20108;-79
2022/12/15 15:42:16;;;;;;;0.43;0.43;;;;;;;3.40;68.87;100908.56;5090626;28;20624;-79
2022/12/15 15:44:42;;;;;;;0.55;0.55;;;;;;;3.35;68.89;100908.53;5090728;28;20028;-79
2022/12/15 15:47:23;;;;;;;1.55;0.75;;;;;;;3.36;69.26;100909.41;5087242;28;20043;-79
2022/12/15 15:49:50;;;;;;;2.05;0.82;;;;;;;3.27;68.87;100906.69;5089228;28;20031;-79
2022/12/15 15:52:16;;;;;;;1.02;1.02;;;;;;;3.21;69.37;100908.34;5096743;28;20020;-78
2022/12/15 15:54:43;;;;;;;0.10;0.10;;;;;;;3.14;69.46;100910.91;5088511;28;20029;-79
2022/12/15 15:57:17;;;;;;;0.20;0.20;;;;;;;3.11;69.34;100897.78;5092943;28;20104;-80
2022/12/15 15:59:44;;;;;;;0.25;0.25;;;;;;;2.98;69.83;100901.97;5087945;28;20542;-80
2022/12/15 16:02:12;;;;;;;0.17;0.17;;;;;;;2.90;69.70;100905.41;5093542;28;20616;-80
2022/12/15 16:04:41;;;;;;;0.20;0.20;;;;;;;2.85;69.83;100907.06;5101541;28;20028;-81
2022/12/15 16:07:23;;;;;;;0.20;0.20;;;;;;;2.80;70.06;100913.09;5087534;28;20024;-80